sensor_id;sensor_type;location;lat;lon;timestamp;P1;durP1;ratioP1;P2;durP2;ratioP2
42098;SDS011;27758;55.900;8.516;2023-04-03T00:00:44;3.67;;;2.30;;
42098;SDS011;27758;55.900;8.516;2023-04-03T00:03:10;5.40;;;2.42;;
42098;SDS011;27758;55.900;8.516;2023-04-03T00:05:35;4.47;;;2.60;;
42098;SDS011;27758;55.900;8.516;2023-04-03T00:08:01;4.18;;;2.40;;
42098;SDS011;27758;55.900;8.516;2023-04-03T00:10:27;4.38;;;2.38;;
42098;SDS011;27758;55.900;8.516;2023-04-03T00:12:53;5.07;;;2.67;;
42098;SDS011;27758;55.900;8.516;2023-04-03T00:15:19;7.40;;;3.00;;
42098;SDS011;27758;55.900;8.516;2023-04-03T00:17:45;7.20;;;3.83;;
42098;SDS011;27758;55.900;8.516;2023-04-03T00:20:11;4.45;;;2.78;;
42098;SDS011;27758;55.900;8.516;2023-04-03T00:22:36;5.90;;;3.03;;
42098;SDS011;27758;55.900;8.516;2023-04-03T00:25:03;6.85;;;3.13;;
42098;SDS011;27758;55.900;8.516;2023-04-03T00:27:29;6.22;;;2.83;;
42098;SDS011;27758;55.900;8.516;2023-04-03T00:29:54;9.52;;;3.58;;
42098;SDS011;27758;55.900;8.516;2023-04-03T00:32:20;6.65;;;3.15;;
42098;SDS011;27758;55.900;8.516;2023-04-03T00:34:45;6.60;;;3.10;;
42098;SDS011;27758;55.900;8.516;2023-04-03T00:37:11;8.07;;;3.15;;
42098;SDS011;27758;55.900;8.516;2023-04-03T00:39:37;7.43;;;3.45;;
42098;SDS011;27758;55.900;8.516;2023-04-03T00:42:02;9.18;;;2.95;;
42098;SDS011;27758;55.900;8.516;2023-04-03T00:47:00;7.28;;;2.92;;
42098;SDS011;27758;55.900;8.516;2023-04-03T00:49:27;4.57;;;2.30;;
42098;SDS011;27758;55.900;8.516;2023-04-03T00:51:53;5.05;;;2.72;;
42098;SDS011;27758;55.900;8.516;2023-04-03T00:54:19;5.93;;;2.92;;
42098;SDS011;27758;55.900;8.516;2023-04-03T00:56:45;5.05;;;2.50;;
42098;SDS011;27758;55.900;8.516;2023-04-03T00:59:12;5.95;;;2.78;;
42098;SDS011;27758;55.900;8.516;2023-04-03T01:01:41;7.68;;;2.92;;
42098;SDS011;27758;55.900;8.516;2023-04-03T01:07:13;9.30;;;3.10;;
42098;SDS011;27758;55.900;8.516;2023-04-03T01:09:42;6.75;;;2.85;;
42098;SDS011;27758;55.900;8.516;2023-04-03T01:12:19;8.90;;;3.42;;
42098;SDS011;27758;55.900;8.516;2023-04-03T01:14:48;5.50;;;2.47;;
42098;SDS011;27758;55.900;8.516;2023-04-03T01:22:38;7.68;;;3.10;;
42098;SDS011;27758;55.900;8.516;2023-04-03T01:25:23;7.20;;;3.30;;
42098;SDS011;27758;55.900;8.516;2023-04-03T01:27:49;9.05;;;3.50;;
42098;SDS011;27758;55.900;8.516;2023-04-03T01:30:17;9.90;;;3.95;;
42098;SDS011;27758;55.900;8.516;2023-04-03T01:32:45;13.55;;;3.90;;
42098;SDS011;27758;55.900;8.516;2023-04-03T01:35:10;11.45;;;4.68;;
42098;SDS011;27758;55.900;8.516;2023-04-03T01:37:37;11.25;;;4.03;;
42098;SDS011;27758;55.900;8.516;2023-04-03T01:40:02;9.35;;;4.43;;
42098;SDS011;27758;55.900;8.516;2023-04-03T01:42:29;11.63;;;5.50;;
42098;SDS011;27758;55.900;8.516;2023-04-03T01:44:55;14.25;;;5.82;;
42098;SDS011;27758;55.900;8.516;2023-04-03T01:47:21;9.55;;;4.00;;
42098;SDS011;27758;55.900;8.516;2023-04-03T01:49:47;14.07;;;5.03;;
42098;SDS011;27758;55.900;8.516;2023-04-03T01:52:13;12.32;;;4.85;;
42098;SDS011;27758;55.900;8.516;2023-04-03T01:54:38;11.32;;;4.57;;
42098;SDS011;27758;55.900;8.516;2023-04-03T01:57:04;8.25;;;3.92;;
42098;SDS011;27758;55.900;8.516;2023-04-03T01:59:30;11.10;;;4.22;;
42098;SDS011;27758;55.900;8.516;2023-04-03T02:01:55;11.55;;;4.55;;
42098;SDS011;27758;55.900;8.516;2023-04-03T02:04:21;9.13;;;3.83;;
42098;SDS011;27758;55.900;8.516;2023-04-03T02:06:47;11.50;;;4.10;;
42098;SDS011;27758;55.900;8.516;2023-04-03T02:09:12;14.00;;;4.25;;
42098;SDS011;27758;55.900;8.516;2023-04-03T02:11:38;11.30;;;3.42;;
42098;SDS011;27758;55.900;8.516;2023-04-03T02:14:04;9.02;;;4.20;;
42098;SDS011;27758;55.900;8.516;2023-04-03T02:16:30;7.50;;;3.45;;
42098;SDS011;27758;55.900;8.516;2023-04-03T02:18:56;9.25;;;3.95;;
42098;SDS011;27758;55.900;8.516;2023-04-03T02:21:22;11.27;;;4.10;;
42098;SDS011;27758;55.900;8.516;2023-04-03T02:23:48;10.40;;;4.38;;
42098;SDS011;27758;55.900;8.516;2023-04-03T02:26:14;9.13;;;3.55;;
42098;SDS011;27758;55.900;8.516;2023-04-03T02:28:41;12.60;;;3.85;;
42098;SDS011;27758;55.900;8.516;2023-04-03T02:31:07;9.25;;;3.75;;
42098;SDS011;27758;55.900;8.516;2023-04-03T02:33:34;10.88;;;3.60;;
42098;SDS011;27758;55.900;8.516;2023-04-03T02:36:02;8.60;;;3.35;;
42098;SDS011;27758;55.900;8.516;2023-04-03T02:38:29;8.32;;;3.55;;
42098;SDS011;27758;55.900;8.516;2023-04-03T02:41:08;9.55;;;4.25;;
42098;SDS011;27758;55.900;8.516;2023-04-03T02:43:35;9.05;;;3.90;;
42098;SDS011;27758;55.900;8.516;2023-04-03T02:46:02;8.73;;;4.00;;
42098;SDS011;27758;55.900;8.516;2023-04-03T02:48:28;10.15;;;3.35;;
42098;SDS011;27758;55.900;8.516;2023-04-03T02:50:54;10.55;;;4.65;;
42098;SDS011;27758;55.900;8.516;2023-04-03T02:53:20;9.93;;;4.03;;
42098;SDS011;27758;55.900;8.516;2023-04-03T02:55:46;10.15;;;3.33;;
42098;SDS011;27758;55.900;8.516;2023-04-03T02:58:11;10.55;;;4.10;;
42098;SDS011;27758;55.900;8.516;2023-04-03T03:00:37;8.82;;;4.03;;
42098;SDS011;27758;55.900;8.516;2023-04-03T03:03:03;9.18;;;3.90;;
42098;SDS011;27758;55.900;8.516;2023-04-03T03:05:29;8.02;;;3.95;;
42098;SDS011;27758;55.900;8.516;2023-04-03T03:07:55;9.18;;;4.10;;
42098;SDS011;27758;55.900;8.516;2023-04-03T03:10:21;13.18;;;6.03;;
42098;SDS011;27758;55.900;8.516;2023-04-03T03:12:47;7.57;;;3.92;;
42098;SDS011;27758;55.900;8.516;2023-04-03T03:15:13;6.97;;;4.00;;
42098;SDS011;27758;55.900;8.516;2023-04-03T03:17:41;9.73;;;4.20;;
42098;SDS011;27758;55.900;8.516;2023-04-03T03:20:07;9.52;;;4.85;;
42098;SDS011;27758;55.900;8.516;2023-04-03T03:22:34;7.95;;;3.65;;
42098;SDS011;27758;55.900;8.516;2023-04-03T03:25:00;8.70;;;3.72;;
42098;SDS011;27758;55.900;8.516;2023-04-03T03:27:27;7.50;;;3.65;;
42098;SDS011;27758;55.900;8.516;2023-04-03T03:29:52;11.18;;;4.20;;
42098;SDS011;27758;55.900;8.516;2023-04-03T03:32:21;9.73;;;3.08;;
42098;SDS011;27758;55.900;8.516;2023-04-03T03:34:47;8.50;;;3.90;;
42098;SDS011;27758;55.900;8.516;2023-04-03T03:37:12;6.82;;;3.25;;
42098;SDS011;27758;55.900;8.516;2023-04-03T03:39:38;8.40;;;3.80;;
42098;SDS011;27758;55.900;8.516;2023-04-03T03:42:04;7.53;;;3.40;;
42098;SDS011;27758;55.900;8.516;2023-04-03T03:44:29;10.50;;;4.45;;
42098;SDS011;27758;55.900;8.516;2023-04-03T03:46:55;6.50;;;3.70;;
42098;SDS011;27758;55.900;8.516;2023-04-03T03:49:21;10.27;;;4.32;;
42098;SDS011;27758;55.900;8.516;2023-04-03T03:51:47;9.30;;;4.15;;
42098;SDS011;27758;55.900;8.516;2023-04-03T03:54:13;8.75;;;3.75;;
42098;SDS011;27758;55.900;8.516;2023-04-03T03:56:39;9.52;;;4.15;;
42098;SDS011;27758;55.900;8.516;2023-04-03T03:59:05;8.75;;;3.63;;
42098;SDS011;27758;55.900;8.516;2023-04-03T04:01:31;10.32;;;4.10;;
42098;SDS011;27758;55.900;8.516;2023-04-03T04:03:57;9.02;;;3.90;;
42098;SDS011;27758;55.900;8.516;2023-04-03T04:06:22;7.53;;;3.63;;
42098;SDS011;27758;55.900;8.516;2023-04-03T04:08:48;8.57;;;3.97;;
42098;SDS011;27758;55.900;8.516;2023-04-03T04:11:14;6.75;;;3.33;;
42098;SDS011;27758;55.900;8.516;2023-04-03T04:13:40;8.30;;;3.85;;
42098;SDS011;27758;55.900;8.516;2023-04-03T04:16:06;9.90;;;3.85;;
42098;SDS011;27758;55.900;8.516;2023-04-03T04:18:32;11.73;;;3.85;;
42098;SDS011;27758;55.900;8.516;2023-04-03T04:20:58;9.20;;;3.97;;
42098;SDS011;27758;55.900;8.516;2023-04-03T04:23:23;7.90;;;3.70;;
42098;SDS011;27758;55.900;8.516;2023-04-03T04:25:49;8.40;;;3.70;;
42098;SDS011;27758;55.900;8.516;2023-04-03T04:28:16;10.10;;;4.72;;
42098;SDS011;27758;55.900;8.516;2023-04-03T04:30:42;14.10;;;4.80;;
42098;SDS011;27758;55.900;8.516;2023-04-03T04:33:08;7.38;;;4.75;;
42098;SDS011;27758;55.900;8.516;2023-04-03T04:35:34;8.60;;;4.63;;
42098;SDS011;27758;55.900;8.516;2023-04-03T04:38:00;9.93;;;4.47;;
42098;SDS011;27758;55.900;8.516;2023-04-03T04:40:26;14.55;;;5.22;;
42098;SDS011;27758;55.900;8.516;2023-04-03T04:42:52;9.00;;;4.40;;
42098;SDS011;27758;55.900;8.516;2023-04-03T04:45:18;10.15;;;5.07;;
42098;SDS011;27758;55.900;8.516;2023-04-03T04:47:44;8.35;;;4.00;;
42098;SDS011;27758;55.900;8.516;2023-04-03T04:50:10;9.02;;;4.28;;
42098;SDS011;27758;55.900;8.516;2023-04-03T04:52:36;9.82;;;5.03;;
42098;SDS011;27758;55.900;8.516;2023-04-03T04:55:03;10.55;;;5.25;;
42098;SDS011;27758;55.900;8.516;2023-04-03T04:57:29;11.25;;;4.38;;
42098;SDS011;27758;55.900;8.516;2023-04-03T04:59:55;9.27;;;4.18;;
42098;SDS011;27758;55.900;8.516;2023-04-03T05:02:20;9.27;;;4.75;;
42098;SDS011;27758;55.900;8.516;2023-04-03T05:04:46;9.80;;;4.43;;
42098;SDS011;27758;55.900;8.516;2023-04-03T05:07:12;8.23;;;4.65;;
42098;SDS011;27758;55.900;8.516;2023-04-03T05:09:38;12.48;;;4.68;;
42098;SDS011;27758;55.900;8.516;2023-04-03T05:12:03;10.63;;;4.00;;
42098;SDS011;27758;55.900;8.516;2023-04-03T05:14:29;7.53;;;3.90;;
42098;SDS011;27758;55.900;8.516;2023-04-03T05:16:55;8.50;;;4.53;;
42098;SDS011;27758;55.900;8.516;2023-04-03T05:19:21;8.65;;;4.60;;
42098;SDS011;27758;55.900;8.516;2023-04-03T05:21:47;8.90;;;5.10;;
42098;SDS011;27758;55.900;8.516;2023-04-03T05:24:15;10.88;;;4.70;;
42098;SDS011;27758;55.900;8.516;2023-04-03T05:26:41;10.50;;;5.18;;
42098;SDS011;27758;55.900;8.516;2023-04-03T05:29:08;8.25;;;3.83;;
42098;SDS011;27758;55.900;8.516;2023-04-03T05:31:33;11.70;;;5.32;;
42098;SDS011;27758;55.900;8.516;2023-04-03T05:33:59;12.05;;;4.55;;
42098;SDS011;27758;55.900;8.516;2023-04-03T05:36:25;8.02;;;4.03;;
42098;SDS011;27758;55.900;8.516;2023-04-03T05:38:51;9.65;;;4.18;;
42098;SDS011;27758;55.900;8.516;2023-04-03T05:41:17;11.60;;;4.28;;
42098;SDS011;27758;55.900;8.516;2023-04-03T05:43:43;13.13;;;5.18;;
42098;SDS011;27758;55.900;8.516;2023-04-03T05:46:10;8.27;;;4.15;;
42098;SDS011;27758;55.900;8.516;2023-04-03T05:48:40;13.50;;;3.80;;
42098;SDS011;27758;55.900;8.516;2023-04-03T05:51:06;11.32;;;4.63;;
42098;SDS011;27758;55.900;8.516;2023-04-03T05:53:38;11.13;;;5.05;;
42098;SDS011;27758;55.900;8.516;2023-04-03T05:56:04;8.13;;;4.65;;
42098;SDS011;27758;55.900;8.516;2023-04-03T05:58:30;11.25;;;4.32;;
42098;SDS011;27758;55.900;8.516;2023-04-03T06:00:55;14.27;;;4.30;;
42098;SDS011;27758;55.900;8.516;2023-04-03T06:03:22;13.98;;;5.15;;
42098;SDS011;27758;55.900;8.516;2023-04-03T06:05:48;11.65;;;4.88;;
42098;SDS011;27758;55.900;8.516;2023-04-03T06:08:13;8.52;;;4.45;;
42098;SDS011;27758;55.900;8.516;2023-04-03T06:10:40;9.70;;;4.10;;
42098;SDS011;27758;55.900;8.516;2023-04-03T06:13:06;9.93;;;4.07;;
42098;SDS011;27758;55.900;8.516;2023-04-03T06:15:32;9.52;;;4.78;;
42098;SDS011;27758;55.900;8.516;2023-04-03T06:17:58;8.57;;;4.75;;
42098;SDS011;27758;55.900;8.516;2023-04-03T06:20:25;10.10;;;4.82;;
42098;SDS011;27758;55.900;8.516;2023-04-03T06:22:50;7.95;;;3.75;;
42098;SDS011;27758;55.900;8.516;2023-04-03T06:25:16;8.50;;;4.13;;
42098;SDS011;27758;55.900;8.516;2023-04-03T06:27:44;8.93;;;4.47;;
42098;SDS011;27758;55.900;8.516;2023-04-03T06:30:10;6.28;;;3.15;;
42098;SDS011;27758;55.900;8.516;2023-04-03T06:32:36;15.50;;;4.00;;
42098;SDS011;27758;55.900;8.516;2023-04-03T06:35:03;6.82;;;3.88;;
42098;SDS011;27758;55.900;8.516;2023-04-03T06:37:29;7.13;;;3.30;;
42098;SDS011;27758;55.900;8.516;2023-04-03T06:39:55;6.60;;;3.13;;
42098;SDS011;27758;55.900;8.516;2023-04-03T06:42:22;5.38;;;3.17;;
42098;SDS011;27758;55.900;8.516;2023-04-03T06:44:48;7.28;;;2.92;;
42098;SDS011;27758;55.900;8.516;2023-04-03T06:47:14;6.40;;;3.05;;
42098;SDS011;27758;55.900;8.516;2023-04-03T06:49:41;8.82;;;3.10;;
42098;SDS011;27758;55.900;8.516;2023-04-03T06:52:07;12.27;;;3.60;;
42098;SDS011;27758;55.900;8.516;2023-04-03T06:54:34;10.07;;;3.10;;
42098;SDS011;27758;55.900;8.516;2023-04-03T06:57:00;5.82;;;2.85;;
42098;SDS011;27758;55.900;8.516;2023-04-03T06:59:27;6.07;;;2.83;;
42098;SDS011;27758;55.900;8.516;2023-04-03T07:01:53;9.38;;;4.03;;
42098;SDS011;27758;55.900;8.516;2023-04-03T07:04:19;7.78;;;3.15;;
42098;SDS011;27758;55.900;8.516;2023-04-03T07:06:47;6.10;;;3.05;;
42098;SDS011;27758;55.900;8.516;2023-04-03T07:09:13;9.73;;;3.15;;
42098;SDS011;27758;55.900;8.516;2023-04-03T07:11:39;8.35;;;3.40;;
42098;SDS011;27758;55.900;8.516;2023-04-03T07:14:05;4.97;;;2.25;;
42098;SDS011;27758;55.900;8.516;2023-04-03T07:16:33;3.63;;;2.05;;
42098;SDS011;27758;55.900;8.516;2023-04-03T07:18:59;7.20;;;2.78;;
42098;SDS011;27758;55.900;8.516;2023-04-03T07:21:26;6.57;;;3.05;;
42098;SDS011;27758;55.900;8.516;2023-04-03T07:23:53;4.40;;;2.60;;
42098;SDS011;27758;55.900;8.516;2023-04-03T07:26:19;7.15;;;3.03;;
42098;SDS011;27758;55.900;8.516;2023-04-03T07:28:46;8.00;;;2.90;;
42098;SDS011;27758;55.900;8.516;2023-04-03T07:31:13;7.18;;;3.17;;
42098;SDS011;27758;55.900;8.516;2023-04-03T07:33:40;5.57;;;2.53;;
42098;SDS011;27758;55.900;8.516;2023-04-03T07:36:06;5.35;;;2.65;;
42098;SDS011;27758;55.900;8.516;2023-04-03T07:38:33;6.97;;;2.70;;
42098;SDS011;27758;55.900;8.516;2023-04-03T07:41:01;7.60;;;2.53;;
42098;SDS011;27758;55.900;8.516;2023-04-03T07:43:27;4.07;;;2.10;;
42098;SDS011;27758;55.900;8.516;2023-04-03T07:45:53;9.60;;;2.92;;
42098;SDS011;27758;55.900;8.516;2023-04-03T07:48:23;4.00;;;2.40;;
42098;SDS011;27758;55.900;8.516;2023-04-03T07:50:50;4.28;;;1.90;;
42098;SDS011;27758;55.900;8.516;2023-04-03T07:53:17;7.28;;;2.72;;
42098;SDS011;27758;55.900;8.516;2023-04-03T07:55:45;8.45;;;2.85;;
42098;SDS011;27758;55.900;8.516;2023-04-03T07:58:13;7.78;;;2.70;;
42098;SDS011;27758;55.900;8.516;2023-04-03T08:03:09;4.55;;;2.55;;
42098;SDS011;27758;55.900;8.516;2023-04-03T08:05:42;5.70;;;1.88;;
42098;SDS011;27758;55.900;8.516;2023-04-03T08:08:10;3.40;;;1.80;;
42098;SDS011;27758;55.900;8.516;2023-04-03T08:10:37;5.80;;;1.80;;
42098;SDS011;27758;55.900;8.516;2023-04-03T08:13:03;4.25;;;1.70;;
42098;SDS011;27758;55.900;8.516;2023-04-03T08:15:29;5.40;;;1.77;;
42098;SDS011;27758;55.900;8.516;2023-04-03T08:17:56;2.50;;;1.50;;
42098;SDS011;27758;55.900;8.516;2023-04-03T08:20:23;3.80;;;1.45;;
42098;SDS011;27758;55.900;8.516;2023-04-03T08:22:48;7.65;;;1.52;;
42098;SDS011;27758;55.900;8.516;2023-04-03T08:25:14;2.92;;;1.35;;
42098;SDS011;27758;55.900;8.516;2023-04-03T08:27:40;4.20;;;1.38;;
42098;SDS011;27758;55.900;8.516;2023-04-03T08:30:06;4.90;;;1.73;;
42098;SDS011;27758;55.900;8.516;2023-04-03T08:32:33;5.80;;;1.58;;
42098;SDS011;27758;55.900;8.516;2023-04-03T08:35:01;4.00;;;1.75;;
42098;SDS011;27758;55.900;8.516;2023-04-03T08:37:27;4.05;;;1.45;;
42098;SDS011;27758;55.900;8.516;2023-04-03T08:39:53;2.15;;;1.38;;
42098;SDS011;27758;55.900;8.516;2023-04-03T08:48:15;6.75;;;1.58;;
42098;SDS011;27758;55.900;8.516;2023-04-03T08:50:56;4.85;;;1.02;;
42098;SDS011;27758;55.900;8.516;2023-04-03T08:53:28;2.78;;;0.98;;
42098;SDS011;27758;55.900;8.516;2023-04-03T08:55:57;1.95;;;0.80;;
42098;SDS011;27758;55.900;8.516;2023-04-03T08:58:28;2.72;;;0.85;;
42098;SDS011;27758;55.900;8.516;2023-04-03T09:01:15;4.55;;;1.50;;
42098;SDS011;27758;55.900;8.516;2023-04-03T09:03:48;3.15;;;0.88;;
42098;SDS011;27758;55.900;8.516;2023-04-03T09:06:20;3.95;;;0.75;;
42098;SDS011;27758;55.900;8.516;2023-04-03T09:08:51;3.40;;;0.93;;
42098;SDS011;27758;55.900;8.516;2023-04-03T09:14:02;3.40;;;0.90;;
42098;SDS011;27758;55.900;8.516;2023-04-03T09:16:42;2.42;;;0.80;;
42098;SDS011;27758;55.900;8.516;2023-04-03T09:21:56;2.80;;;0.85;;
42098;SDS011;27758;55.900;8.516;2023-04-03T09:24:22;3.53;;;1.10;;
42098;SDS011;27758;55.900;8.516;2023-04-03T09:29:19;1.60;;;0.55;;
42098;SDS011;27758;55.900;8.516;2023-04-03T09:31:48;2.83;;;0.60;;
42098;SDS011;27758;55.900;8.516;2023-04-03T09:34:38;3.58;;;0.98;;
42098;SDS011;27758;55.900;8.516;2023-04-03T09:37:07;3.22;;;0.80;;
42098;SDS011;27758;55.900;8.516;2023-04-03T09:39:50;2.35;;;0.68;;
42098;SDS011;27758;55.900;8.516;2023-04-03T09:44:52;2.88;;;0.90;;
42098;SDS011;27758;55.900;8.516;2023-04-03T09:47:30;2.25;;;0.60;;
42098;SDS011;27758;55.900;8.516;2023-04-03T09:52:46;2.08;;;0.57;;
42098;SDS011;27758;55.900;8.516;2023-04-03T09:55:17;3.20;;;0.98;;
42098;SDS011;27758;55.900;8.516;2023-04-03T09:57:52;3.35;;;0.80;;
42098;SDS011;27758;55.900;8.516;2023-04-03T10:00:21;2.45;;;0.93;;
42098;SDS011;27758;55.900;8.516;2023-04-03T10:02:51;3.70;;;1.30;;
42098;SDS011;27758;55.900;8.516;2023-04-03T10:05:32;5.30;;;1.20;;
42098;SDS011;27758;55.900;8.516;2023-04-03T10:10:42;1.75;;;0.90;;
42098;SDS011;27758;55.900;8.516;2023-04-03T10:15:43;3.15;;;0.80;;
42098;SDS011;27758;55.900;8.516;2023-04-03T10:21:20;2.67;;;0.82;;
42098;SDS011;27758;55.900;8.516;2023-04-03T10:24:11;1.02;;;0.60;;
42098;SDS011;27758;55.900;8.516;2023-04-03T10:29:27;4.72;;;1.02;;
42098;SDS011;27758;55.900;8.516;2023-04-03T10:35:37;1.42;;;0.88;;
42098;SDS011;27758;55.900;8.516;2023-04-03T10:43:41;2.40;;;0.80;;
42098;SDS011;27758;55.900;8.516;2023-04-03T10:46:20;1.45;;;0.68;;
42098;SDS011;27758;55.900;8.516;2023-04-03T10:54:54;4.72;;;1.30;;
42098;SDS011;27758;55.900;8.516;2023-04-03T10:57:08;2.95;;;1.40;;
42098;SDS011;27758;55.900;8.516;2023-04-03T10:59:36;2.65;;;1.42;;
42098;SDS011;27758;55.900;8.516;2023-04-03T11:02:04;3.58;;;1.27;;
42098;SDS011;27758;55.900;8.516;2023-04-03T11:04:35;2.22;;;1.10;;
42098;SDS011;27758;55.900;8.516;2023-04-03T11:07:12;4.03;;;1.42;;
42098;SDS011;27758;55.900;8.516;2023-04-03T11:09:47;3.53;;;1.50;;
42098;SDS011;27758;55.900;8.516;2023-04-03T11:15:05;5.38;;;1.52;;
42098;SDS011;27758;55.900;8.516;2023-04-03T11:17:46;3.42;;;1.05;;
42098;SDS011;27758;55.900;8.516;2023-04-03T11:20:18;1.73;;;0.88;;
42098;SDS011;27758;55.900;8.516;2023-04-03T11:23:00;2.92;;;1.20;;
42098;SDS011;27758;55.900;8.516;2023-04-03T11:26:12;5.93;;;1.23;;
42098;SDS011;27758;55.900;8.516;2023-04-03T11:28:41;3.17;;;1.20;;
42098;SDS011;27758;55.900;8.516;2023-04-03T11:36:42;1.42;;;0.90;;
42098;SDS011;27758;55.900;8.516;2023-04-03T11:39:34;2.97;;;1.10;;
42098;SDS011;27758;55.900;8.516;2023-04-03T11:45:15;5.03;;;1.20;;
42098;SDS011;27758;55.900;8.516;2023-04-03T11:47:48;0.80;;;0.73;;
42098;SDS011;27758;55.900;8.516;2023-04-03T12:05:49;3.33;;;1.33;;
42098;SDS011;27758;55.900;8.516;2023-04-03T12:16:21;3.75;;;1.30;;
42098;SDS011;27758;55.900;8.516;2023-04-03T12:27:01;3.22;;;1.20;;
42098;SDS011;27758;55.900;8.516;2023-04-03T12:38:00;4.97;;;1.10;;
42098;SDS011;27758;55.900;8.516;2023-04-03T12:46:18;3.85;;;1.80;;
42098;SDS011;27758;55.900;8.516;2023-04-03T12:48:53;4.93;;;1.10;;
42098;SDS011;27758;55.900;8.516;2023-04-03T12:51:22;1.42;;;0.95;;
42098;SDS011;27758;55.900;8.516;2023-04-03T12:54:02;2.97;;;1.23;;
42098;SDS011;27758;55.900;8.516;2023-04-03T12:56:38;3.97;;;0.70;;
42098;SDS011;27758;55.900;8.516;2023-04-03T13:01:55;3.35;;;1.15;;
42098;SDS011;27758;55.900;8.516;2023-04-03T13:04:23;1.92;;;1.00;;
42098;SDS011;27758;55.900;8.516;2023-04-03T13:06:49;3.08;;;0.93;;
42098;SDS011;27758;55.900;8.516;2023-04-03T13:11:49;4.88;;;1.10;;
42098;SDS011;27758;55.900;8.516;2023-04-03T13:14:35;3.70;;;1.63;;
42098;SDS011;27758;55.900;8.516;2023-04-03T13:17:09;4.75;;;1.50;;
42098;SDS011;27758;55.900;8.516;2023-04-03T13:19:41;5.72;;;1.10;;
42098;SDS011;27758;55.900;8.516;2023-04-03T13:24:52;4.65;;;1.20;;
42098;SDS011;27758;55.900;8.516;2023-04-03T13:27:20;2.50;;;1.10;;
42098;SDS011;27758;55.900;8.516;2023-04-03T13:29:49;5.18;;;1.42;;
42098;SDS011;27758;55.900;8.516;2023-04-03T13:32:19;5.75;;;1.38;;
42098;SDS011;27758;55.900;8.516;2023-04-03T13:39:57;8.07;;;1.33;;
42098;SDS011;27758;55.900;8.516;2023-04-03T13:42:33;2.58;;;1.23;;
42098;SDS011;27758;55.900;8.516;2023-04-03T13:47:44;2.15;;;0.80;;
42098;SDS011;27758;55.900;8.516;2023-04-03T13:52:45;2.00;;;0.90;;
42098;SDS011;27758;55.900;8.516;2023-04-03T13:57:57;4.13;;;1.20;;
42098;SDS011;27758;55.900;8.516;2023-04-03T14:03:13;3.00;;;1.10;;
42098;SDS011;27758;55.900;8.516;2023-04-03T14:05:45;1.75;;;1.08;;
42098;SDS011;27758;55.900;8.516;2023-04-03T14:08:11;2.35;;;1.10;;
42098;SDS011;27758;55.900;8.516;2023-04-03T14:10:37;3.78;;;1.10;;
42098;SDS011;27758;55.900;8.516;2023-04-03T14:13:03;6.63;;;1.60;;
42098;SDS011;27758;55.900;8.516;2023-04-03T14:15:30;4.25;;;1.65;;
42098;SDS011;27758;55.900;8.516;2023-04-03T14:17:57;1.48;;;0.90;;
42098;SDS011;27758;55.900;8.516;2023-04-03T14:20:24;3.83;;;1.55;;
42098;SDS011;27758;55.900;8.516;2023-04-03T14:22:51;3.20;;;1.17;;
42098;SDS011;27758;55.900;8.516;2023-04-03T14:25:19;3.97;;;1.33;;
42098;SDS011;27758;55.900;8.516;2023-04-03T14:27:46;3.00;;;1.25;;
42098;SDS011;27758;55.900;8.516;2023-04-03T14:30:21;5.43;;;1.67;;
42098;SDS011;27758;55.900;8.516;2023-04-03T14:32:49;3.47;;;1.33;;
42098;SDS011;27758;55.900;8.516;2023-04-03T14:35:16;2.40;;;1.35;;
42098;SDS011;27758;55.900;8.516;2023-04-03T14:37:43;9.07;;;2.13;;
42098;SDS011;27758;55.900;8.516;2023-04-03T14:40:15;4.68;;;1.60;;
42098;SDS011;27758;55.900;8.516;2023-04-03T14:42:42;3.92;;;1.23;;
42098;SDS011;27758;55.900;8.516;2023-04-03T14:45:10;2.55;;;1.00;;
42098;SDS011;27758;55.900;8.516;2023-04-03T14:47:39;4.30;;;1.48;;
42098;SDS011;27758;55.900;8.516;2023-04-03T14:50:19;1.45;;;1.00;;
42098;SDS011;27758;55.900;8.516;2023-04-03T14:52:50;2.72;;;1.13;;
42098;SDS011;27758;55.900;8.516;2023-04-03T14:55:18;2.63;;;1.38;;
42098;SDS011;27758;55.900;8.516;2023-04-03T14:57:46;4.35;;;1.60;;
42098;SDS011;27758;55.900;8.516;2023-04-03T15:00:18;3.20;;;1.92;;
42098;SDS011;27758;55.900;8.516;2023-04-03T15:02:46;6.20;;;1.30;;
42098;SDS011;27758;55.900;8.516;2023-04-03T15:05:13;3.65;;;1.30;;
42098;SDS011;27758;55.900;8.516;2023-04-03T15:07:41;3.90;;;1.80;;
42098;SDS011;27758;55.900;8.516;2023-04-03T15:10:19;3.70;;;1.63;;
42098;SDS011;27758;55.900;8.516;2023-04-03T15:12:48;4.30;;;1.50;;
42098;SDS011;27758;55.900;8.516;2023-04-03T15:15:15;3.15;;;1.30;;
42098;SDS011;27758;55.900;8.516;2023-04-03T15:17:42;3.38;;;1.27;;
42098;SDS011;27758;55.900;8.516;2023-04-03T15:20:19;4.70;;;1.85;;
42098;SDS011;27758;55.900;8.516;2023-04-03T15:22:47;3.58;;;1.23;;
42098;SDS011;27758;55.900;8.516;2023-04-03T15:25:13;6.22;;;1.60;;
42098;SDS011;27758;55.900;8.516;2023-04-03T15:27:39;4.03;;;1.25;;
42098;SDS011;27758;55.900;8.516;2023-04-03T15:30:06;4.47;;;1.23;;
42098;SDS011;27758;55.900;8.516;2023-04-03T15:32:33;2.28;;;0.93;;
42098;SDS011;27758;55.900;8.516;2023-04-03T15:35:00;3.95;;;1.17;;
42098;SDS011;27758;55.900;8.516;2023-04-03T15:37:26;3.58;;;1.33;;
42098;SDS011;27758;55.900;8.516;2023-04-03T15:39:52;3.17;;;1.40;;
42098;SDS011;27758;55.900;8.516;2023-04-03T15:42:17;2.55;;;1.08;;
42098;SDS011;27758;55.900;8.516;2023-04-03T15:44:43;4.57;;;1.55;;
42098;SDS011;27758;55.900;8.516;2023-04-03T15:47:09;2.97;;;1.15;;
42098;SDS011;27758;55.900;8.516;2023-04-03T15:49:35;2.70;;;1.30;;
42098;SDS011;27758;55.900;8.516;2023-04-03T15:52:01;3.30;;;1.35;;
42098;SDS011;27758;55.900;8.516;2023-04-03T15:54:27;6.45;;;1.48;;
42098;SDS011;27758;55.900;8.516;2023-04-03T15:56:54;3.25;;;1.15;;
42098;SDS011;27758;55.900;8.516;2023-04-03T15:59:20;2.42;;;1.23;;
42098;SDS011;27758;55.900;8.516;2023-04-03T16:01:47;4.60;;;1.50;;
42098;SDS011;27758;55.900;8.516;2023-04-03T16:04:13;2.80;;;1.13;;
42098;SDS011;27758;55.900;8.516;2023-04-03T16:06:40;2.63;;;1.33;;
42098;SDS011;27758;55.900;8.516;2023-04-03T16:09:06;2.88;;;1.10;;
42098;SDS011;27758;55.900;8.516;2023-04-03T16:11:32;4.78;;;1.30;;
42098;SDS011;27758;55.900;8.516;2023-04-03T16:14:00;3.05;;;1.20;;
42098;SDS011;27758;55.900;8.516;2023-04-03T16:16:26;4.25;;;1.33;;
42098;SDS011;27758;55.900;8.516;2023-04-03T16:18:53;4.93;;;1.33;;
42098;SDS011;27758;55.900;8.516;2023-04-03T16:21:20;4.78;;;1.27;;
42098;SDS011;27758;55.900;8.516;2023-04-03T16:23:48;3.35;;;1.45;;
42098;SDS011;27758;55.900;8.516;2023-04-03T16:26:14;3.05;;;1.35;;
42098;SDS011;27758;55.900;8.516;2023-04-03T16:28:40;5.65;;;1.30;;
42098;SDS011;27758;55.900;8.516;2023-04-03T16:31:06;4.57;;;1.30;;
42098;SDS011;27758;55.900;8.516;2023-04-03T16:33:33;5.20;;;1.52;;
42098;SDS011;27758;55.900;8.516;2023-04-03T16:35:58;2.67;;;1.00;;
42098;SDS011;27758;55.900;8.516;2023-04-03T16:38:24;5.18;;;1.40;;
42098;SDS011;27758;55.900;8.516;2023-04-03T16:40:50;4.57;;;1.50;;
42098;SDS011;27758;55.900;8.516;2023-04-03T16:43:17;3.15;;;1.17;;
42098;SDS011;27758;55.900;8.516;2023-04-03T16:45:43;3.95;;;1.48;;
42098;SDS011;27758;55.900;8.516;2023-04-03T16:48:09;5.68;;;1.67;;
42098;SDS011;27758;55.900;8.516;2023-04-03T16:50:35;3.58;;;1.40;;
42098;SDS011;27758;55.900;8.516;2023-04-03T16:53:01;8.00;;;1.63;;
42098;SDS011;27758;55.900;8.516;2023-04-03T16:55:28;4.57;;;1.30;;
42098;SDS011;27758;55.900;8.516;2023-04-03T16:57:54;5.35;;;1.08;;
42098;SDS011;27758;55.900;8.516;2023-04-03T17:00:20;3.22;;;1.20;;
42098;SDS011;27758;55.900;8.516;2023-04-03T17:02:46;3.47;;;1.33;;
42098;SDS011;27758;55.900;8.516;2023-04-03T17:05:12;3.25;;;1.23;;
42098;SDS011;27758;55.900;8.516;2023-04-03T17:07:37;3.83;;;1.30;;
42098;SDS011;27758;55.900;8.516;2023-04-03T17:10:03;5.22;;;1.27;;